createdAt,value
2019-05-13T00:01:19.076Z,3.00
2019-05-13T00:03:49.820Z,2.93
2019-05-13T00:06:19.643Z,2.80
2019-05-13T00:08:49.340Z,2.67
2019-05-13T00:11:19.092Z,2.93
2019-05-13T00:13:48.795Z,3.00
2019-05-13T00:16:18.493Z,2.77
2019-05-13T00:18:48.245Z,2.90
2019-05-13T00:21:18.119Z,2.80
2019-05-13T00:23:48.016Z,2.90
2019-05-13T00:26:17.756Z,2.97
2019-05-13T00:28:47.468Z,2.33
2019-05-13T00:31:17.243Z,2.50
2019-05-13T00:33:46.951Z,2.60
2019-05-13T00:36:16.611Z,2.50
2019-05-13T00:38:46.309Z,2.50
2019-05-13T00:41:16.055Z,2.80
2019-05-13T00:43:47.160Z,2.40
2019-05-13T00:46:16.891Z,2.50
2019-05-13T00:48:46.686Z,2.23
2019-05-13T00:51:16.438Z,2.33
2019-05-13T00:53:47.255Z,2.43
2019-05-13T00:56:17.025Z,2.17
2019-05-13T00:58:48.895Z,2.40
2019-05-13T01:01:18.648Z,2.50
2019-05-13T01:03:50.623Z,2.47
2019-05-13T01:06:20.349Z,2.00
2019-05-13T01:08:50.040Z,2.00
2019-05-13T01:11:19.735Z,2.13
2019-05-13T01:13:49.468Z,1.93
2019-05-13T01:16:19.208Z,2.10
2019-05-13T01:18:50.728Z,2.10
2019-05-13T01:21:20.407Z,2.03
2019-05-13T01:23:50.093Z,2.00
2019-05-13T01:26:19.804Z,1.80
2019-05-13T01:28:53.541Z,1.50
2019-05-13T01:31:23.828Z,1.70
2019-05-13T01:33:53.885Z,1.60
2019-05-13T01:36:23.689Z,1.90
2019-05-13T01:38:54.097Z,1.70
2019-05-13T01:41:24.188Z,1.80
2019-05-13T01:43:54.477Z,1.87
2019-05-13T01:46:24.513Z,1.67
2019-05-13T01:48:54.480Z,1.60
2019-05-13T01:51:24.647Z,1.63
2019-05-13T01:53:54.338Z,1.60
2019-05-13T01:56:24.079Z,1.57
2019-05-13T01:58:54.173Z,1.40
2019-05-13T02:01:24.320Z,1.53
2019-05-13T02:03:54.515Z,1.60
2019-05-13T02:06:24.807Z,1.70
2019-05-13T02:08:54.678Z,1.40
2019-05-13T02:11:24.479Z,1.60
2019-05-13T02:13:54.214Z,1.80
2019-05-13T02:16:24.398Z,1.60
2019-05-13T02:18:54.264Z,1.50
2019-05-13T02:21:24.272Z,1.50
2019-05-13T02:23:55.992Z,1.70
2019-05-13T02:26:25.720Z,1.63
2019-05-13T02:28:55.477Z,1.90
2019-05-13T02:31:39.111Z,1.90
2019-05-13T02:33:56.505Z,1.50
2019-05-13T02:36:26.261Z,1.80
2019-05-13T02:38:55.988Z,1.90
2019-05-13T02:41:25.658Z,1.63
2019-05-13T02:43:55.469Z,2.10
2019-05-13T02:46:25.197Z,2.07
2019-05-13T02:48:54.884Z,1.77
2019-05-13T02:51:24.577Z,1.60
2019-05-13T02:53:54.419Z,1.50
2019-05-13T02:56:24.131Z,1.47
2019-05-13T02:58:55.138Z,1.30
2019-05-13T03:01:24.853Z,1.60
2019-05-13T03:03:55.772Z,1.60
2019-05-13T03:06:25.493Z,1.67
2019-05-13T03:08:55.209Z,1.60
2019-05-13T03:11:24.852Z,1.50
2019-05-13T03:13:54.577Z,1.60
2019-05-13T03:16:33.702Z,1.63
2019-05-13T03:19:03.400Z,1.90
2019-05-13T03:21:33.144Z,2.00
2019-05-13T03:24:03.688Z,1.93
2019-05-13T03:26:33.583Z,1.93
2019-05-13T03:29:03.599Z,1.63
2019-05-13T03:31:36.157Z,1.63
2019-05-13T03:34:07.103Z,1.90
2019-05-13T03:36:45.145Z,1.70
2019-05-13T03:39:16.087Z,1.90
2019-05-13T03:41:45.670Z,1.60
2019-05-13T03:44:16.878Z,1.50
2019-05-13T03:46:48.647Z,2.27
2019-05-13T03:49:23.056Z,2.03
2019-05-13T03:51:53.474Z,2.07
2019-05-13T03:54:23.881Z,2.23
2019-05-13T03:56:53.834Z,1.67
2019-05-13T03:59:23.539Z,1.53
2019-05-13T04:01:53.449Z,1.93
2019-05-13T04:04:23.628Z,2.00
2019-05-13T04:06:53.546Z,2.10
2019-05-13T04:09:31.052Z,2.90
2019-05-13T04:11:54.878Z,1.93
2019-05-13T04:14:24.570Z,2.40
2019-05-13T04:16:54.291Z,2.70
2019-05-13T04:19:24.105Z,2.87
2019-05-13T04:21:53.922Z,2.83
2019-05-13T04:24:23.673Z,5.60
2019-05-13T04:26:53.568Z,3.80
2019-05-13T04:29:23.758Z,3.73
2019-05-13T04:31:53.508Z,2.63
2019-05-13T04:34:23.263Z,1.80
2019-05-13T04:36:52.947Z,2.10
2019-05-13T04:39:40.316Z,1.67
2019-05-13T04:41:54.264Z,1.70
2019-05-13T04:44:24.253Z,1.80
2019-05-13T04:46:54.355Z,2.07
2019-05-13T04:49:24.077Z,1.80
2019-05-13T04:51:54.313Z,1.70
2019-05-13T04:54:24.088Z,1.93
2019-05-13T04:56:53.809Z,1.80
2019-05-13T04:59:23.729Z,1.77
2019-05-13T05:02:39.969Z,2.00
2019-05-13T05:05:32.874Z,2.10
2019-05-13T05:08:58.524Z,2.10
2019-05-13T05:12:07.446Z,2.30
2019-05-13T05:14:58.721Z,2.00
2019-05-13T05:17:57.067Z,1.97
2019-05-13T05:20:37.825Z,1.97
2019-05-13T05:23:34.989Z,2.20
2019-05-13T05:26:54.688Z,2.20
2019-05-13T05:29:42.827Z,2.23
2019-05-13T05:32:56.636Z,2.23
2019-05-13T05:35:44.037Z,2.10
2019-05-13T05:38:27.970Z,2.20
2019-05-13T05:41:01.686Z,2.03
2019-05-13T05:43:34.002Z,2.07
2019-05-13T05:46:04.554Z,2.17
2019-05-13T05:48:36.023Z,2.37
2019-05-13T05:51:06.164Z,2.23
2019-05-13T05:53:37.373Z,2.60
2019-05-13T05:56:08.059Z,2.60
2019-05-13T05:58:38.412Z,2.10
2019-05-13T06:01:11.839Z,3.20
2019-05-13T06:03:41.838Z,2.80
2019-05-13T06:06:14.839Z,2.10
2019-05-13T06:08:45.220Z,1.93
2019-05-13T06:11:16.329Z,1.93
2019-05-13T06:13:46.581Z,1.87
2019-05-13T06:16:16.297Z,1.83
2019-05-13T06:18:46.023Z,1.80
2019-05-13T06:21:15.873Z,2.10
2019-05-13T06:23:45.671Z,2.00
2019-05-13T06:26:15.892Z,2.10
2019-05-13T06:28:45.614Z,2.10
2019-05-13T06:31:18.221Z,2.13
2019-05-13T06:33:47.943Z,2.37
2019-05-13T06:36:18.153Z,2.43
2019-05-13T06:38:48.076Z,2.07
2019-05-13T06:41:17.829Z,2.63
2019-05-13T06:43:47.545Z,2.33
2019-05-13T06:46:17.303Z,2.33
2019-05-13T06:48:47.075Z,2.33
2019-05-13T06:51:22.032Z,2.63
2019-05-13T06:53:51.768Z,2.30
2019-05-13T06:56:22.146Z,2.47
2019-05-13T06:58:52.170Z,2.37
2019-05-13T07:01:22.388Z,2.47
2019-05-13T07:03:52.194Z,2.43
2019-05-13T07:06:21.960Z,2.73
2019-05-13T07:08:52.211Z,2.87
2019-05-13T07:11:24.830Z,2.60
2019-05-13T07:13:53.407Z,2.50
2019-05-13T07:16:23.182Z,2.67
2019-05-13T07:18:52.935Z,2.50
2019-05-13T07:21:22.654Z,2.60
2019-05-13T07:23:54.937Z,2.70
2019-05-13T07:26:26.126Z,2.93
2019-05-13T07:28:56.126Z,2.80
2019-05-13T07:31:26.296Z,3.33
2019-05-13T07:33:56.161Z,3.10
2019-05-13T07:36:25.944Z,3.00
2019-05-13T07:38:56.614Z,3.30
2019-05-13T07:41:38.305Z,2.60
2019-05-13T07:43:57.857Z,3.53
2019-05-13T07:46:28.197Z,3.30
2019-05-13T07:48:57.921Z,3.00
2019-05-13T07:51:27.662Z,3.00
2019-05-13T07:53:57.442Z,2.80
2019-05-13T07:56:27.172Z,2.60
2019-05-13T07:58:56.944Z,3.40
2019-05-13T08:01:26.732Z,3.13
2019-05-13T08:03:56.489Z,3.13
2019-05-13T08:06:26.217Z,3.00
2019-05-13T08:08:55.995Z,3.07
2019-05-13T08:11:25.791Z,3.50
2019-05-13T08:13:55.529Z,3.20
2019-05-13T08:16:25.280Z,3.07
2019-05-13T08:18:55.007Z,3.20
2019-05-13T08:21:24.744Z,4.73
2019-05-13T08:23:54.562Z,2.97
2019-05-13T08:26:24.213Z,3.00
2019-05-13T08:29:01.371Z,3.50
2019-05-13T08:31:25.335Z,2.77
2019-05-13T08:33:57.868Z,3.13
2019-05-13T08:36:27.561Z,3.17
2019-05-13T08:38:57.300Z,3.23
2019-05-13T08:41:27.136Z,3.50
2019-05-13T08:43:57.029Z,3.37
2019-05-13T08:46:26.793Z,3.60
2019-05-13T08:48:56.577Z,3.17
2019-05-13T08:51:26.341Z,3.80
2019-05-13T08:53:56.125Z,3.90
2019-05-13T08:56:26.044Z,4.00
2019-05-13T08:58:55.792Z,3.70
2019-05-13T09:01:28.540Z,4.10
2019-05-13T09:03:58.332Z,3.70
2019-05-13T09:06:31.116Z,4.13
2019-05-13T09:09:02.402Z,4.03
2019-05-13T09:11:31.867Z,3.60
2019-05-13T09:14:02.234Z,3.47
2019-05-13T09:16:33.036Z,4.00
2019-05-13T09:19:03.875Z,3.80
2019-05-13T09:21:33.868Z,4.20
2019-05-13T09:24:19.355Z,3.47
2019-05-13T09:26:34.892Z,3.90
2019-05-13T09:29:04.702Z,4.67
2019-05-13T09:31:34.389Z,4.27
2019-05-13T09:34:04.136Z,4.17
2019-05-13T09:36:33.892Z,4.17
2019-05-13T09:39:05.456Z,4.20
2019-05-13T09:41:40.716Z,4.03
2019-05-13T09:44:06.737Z,4.63
2019-05-13T09:46:36.588Z,4.10
2019-05-13T09:49:16.111Z,3.93
2019-05-13T09:51:37.757Z,4.07
2019-05-13T09:54:07.523Z,4.40
2019-05-13T09:56:37.282Z,3.70
2019-05-13T09:59:06.985Z,4.07
2019-05-13T10:01:36.733Z,4.50
2019-05-13T10:04:06.542Z,4.07
2019-05-13T10:06:36.298Z,4.30
2019-05-13T10:09:08.099Z,4.23
2019-05-13T10:11:37.869Z,4.20
2019-05-13T10:14:07.577Z,4.33
2019-05-13T10:16:37.391Z,4.17
2019-05-13T10:19:07.084Z,4.57
2019-05-13T10:21:36.787Z,14.63
2019-05-13T10:24:06.537Z,4.80
2019-05-13T10:26:36.438Z,4.73
2019-05-13T10:29:06.273Z,4.80
2019-05-13T10:31:36.238Z,4.80
2019-05-13T10:34:06.035Z,4.70
2019-05-13T10:36:35.911Z,4.77
2019-05-13T10:39:08.315Z,4.60
2019-05-13T10:41:38.040Z,5.30
2019-05-13T10:44:07.762Z,5.17
2019-05-13T10:46:37.537Z,5.17
2019-05-13T10:49:07.214Z,5.10
2019-05-13T10:51:36.988Z,5.13
2019-05-13T10:54:07.302Z,4.97
2019-05-13T10:56:37.176Z,5.03
2019-05-13T10:59:06.869Z,4.97
2019-05-13T11:01:36.637Z,5.10
2019-05-13T11:04:06.436Z,5.10
2019-05-13T11:06:36.195Z,5.57
2019-05-13T11:09:12.752Z,5.37
2019-05-13T11:11:41.536Z,5.33
2019-05-13T11:14:15.442Z,5.17
2019-05-13T11:16:42.861Z,5.50
2019-05-13T11:19:12.887Z,5.57
2019-05-13T11:21:44.208Z,5.20
2019-05-13T11:24:14.148Z,5.97
2019-05-13T11:26:43.906Z,5.87
2019-05-13T11:29:13.667Z,5.93
2019-05-13T11:31:43.379Z,5.93
2019-05-13T11:34:13.139Z,5.33
2019-05-13T11:36:43.602Z,5.93
2019-05-13T11:39:13.357Z,5.77
2019-05-13T11:41:43.129Z,5.53
2019-05-13T11:44:16.789Z,5.60
2019-05-13T11:46:44.341Z,6.00
2019-05-13T11:49:14.021Z,5.33
2019-05-13T11:51:44.120Z,5.03
2019-05-13T11:54:14.360Z,4.80
2019-05-13T11:56:49.216Z,5.57
2019-05-13T11:59:16.058Z,10.37
2019-05-13T12:01:45.761Z,5.00
2019-05-13T12:04:15.553Z,4.77
2019-05-13T12:06:49.103Z,4.17
2019-05-13T12:09:16.825Z,4.17
2019-05-13T12:11:46.521Z,3.80
2019-05-13T12:14:39.158Z,4.00
2019-05-13T12:16:48.504Z,4.40
2019-05-13T12:19:18.701Z,3.83
2019-05-13T12:21:48.432Z,3.40
2019-05-13T12:24:18.194Z,3.63
2019-05-13T12:26:47.887Z,3.43
2019-05-13T12:29:19.162Z,4.03
2019-05-13T12:31:52.323Z,4.53
2019-05-13T12:34:22.103Z,3.47
2019-05-13T12:36:51.848Z,3.30
2019-05-13T12:39:23.780Z,2.57
2019-05-13T12:41:53.760Z,3.40
2019-05-13T12:44:23.847Z,2.80
2019-05-13T12:46:54.497Z,3.10
2019-05-13T12:49:31.998Z,3.47
2019-05-13T12:52:00.744Z,3.00
2019-05-13T12:54:27.523Z,3.40
2019-05-13T12:56:57.230Z,3.10
2019-05-13T12:59:27.056Z,3.30
2019-05-13T13:01:56.748Z,2.67
2019-05-13T13:04:26.467Z,2.83
2019-05-13T13:06:56.219Z,2.50
2019-05-13T13:09:26.004Z,2.70
2019-05-13T13:11:55.716Z,2.93
2019-05-13T13:14:34.712Z,3.33
2019-05-13T13:16:56.876Z,2.87
2019-05-13T13:19:26.678Z,2.73
2019-05-13T13:22:04.608Z,2.83
2019-05-13T13:24:35.226Z,3.03
2019-05-13T13:27:13.260Z,3.53
2019-05-13T13:29:36.795Z,3.17
2019-05-13T13:32:06.579Z,3.40
2019-05-13T13:34:36.275Z,4.03
2019-05-13T13:37:05.988Z,3.10
2019-05-13T13:39:35.741Z,2.77
2019-05-13T13:42:06.104Z,2.97
2019-05-13T13:44:36.044Z,3.27
2019-05-13T13:47:08.045Z,3.30
2019-05-13T13:49:37.811Z,3.00
2019-05-13T13:52:07.678Z,3.00
2019-05-13T13:54:37.846Z,3.20
2019-05-13T13:57:07.644Z,2.93
2019-05-13T14:00:11.806Z,2.70
2019-05-13T14:02:13.029Z,2.90
2019-05-13T14:04:42.967Z,2.60
2019-05-13T14:07:34.694Z,1.70
2019-05-13T14:09:43.066Z,2.00
2019-05-13T14:12:12.780Z,1.60
2019-05-13T14:14:42.713Z,1.60
2019-05-13T14:17:12.736Z,2.23
2019-05-13T14:19:42.480Z,2.00
2019-05-13T14:22:12.750Z,1.87
2019-05-13T14:24:42.872Z,2.50
2019-05-13T14:27:13.110Z,2.97
2019-05-13T14:29:48.866Z,2.53
2019-05-13T14:32:14.323Z,2.97
2019-05-13T14:34:44.952Z,2.83
2019-05-13T14:37:14.740Z,4.80
2019-05-13T14:39:44.680Z,2.20
2019-05-13T14:42:14.562Z,3.53
2019-05-13T14:44:44.360Z,3.90
2019-05-13T14:47:14.104Z,5.67
2019-05-13T14:49:43.933Z,4.00
2019-05-13T14:52:13.661Z,3.40
2019-05-13T14:54:43.391Z,2.70
2019-05-13T14:57:14.988Z,4.83
2019-05-13T14:59:45.023Z,3.53
2019-05-13T15:02:14.885Z,3.93
2019-05-13T15:04:44.649Z,5.30
2019-05-13T15:07:15.273Z,4.70
2019-05-13T15:09:45.035Z,5.07
2019-05-13T15:12:14.769Z,5.10
2019-05-13T15:14:44.455Z,6.83
2019-05-13T15:17:14.211Z,7.90
2019-05-13T15:19:43.932Z,6.93
2019-05-13T15:22:16.056Z,9.17
2019-05-13T15:24:45.951Z,7.50
2019-05-13T15:27:15.757Z,5.90
2019-05-13T15:29:45.432Z,4.50
2019-05-13T15:32:15.162Z,4.63
2019-05-13T15:34:45.147Z,3.53
2019-05-13T15:37:15.001Z,3.77
2019-05-13T15:39:44.691Z,3.13
2019-05-13T15:42:14.448Z,3.50
2019-05-13T15:44:44.534Z,3.30
2019-05-13T15:47:22.746Z,3.23
2019-05-13T15:49:45.653Z,3.07
2019-05-13T15:52:15.376Z,3.30
2019-05-13T15:54:45.142Z,4.10
2019-05-13T15:57:14.919Z,4.50
2019-05-13T15:59:44.828Z,4.33
2019-05-13T16:02:15.311Z,4.40
2019-05-13T16:04:52.715Z,5.67
2019-05-13T16:07:16.416Z,6.70
2019-05-13T16:09:46.207Z,6.13
2019-05-13T16:12:16.321Z,5.57
2019-05-13T16:14:47.713Z,5.97
2019-05-13T16:17:17.473Z,5.40
2019-05-13T16:19:47.190Z,6.33
2019-05-13T16:22:16.941Z,6.17
2019-05-13T16:24:46.652Z,6.93
2019-05-13T16:27:16.409Z,6.63
2019-05-13T16:29:46.520Z,6.73
2019-05-13T16:32:16.273Z,6.53
2019-05-13T16:34:46.096Z,5.57
2019-05-13T16:37:15.854Z,5.87
2019-05-13T16:39:45.600Z,6.27
2019-05-13T16:42:15.332Z,5.40
2019-05-13T16:44:45.180Z,7.33
2019-05-13T16:47:14.895Z,5.90
2019-05-13T16:49:44.575Z,14.13
2019-05-13T16:52:14.263Z,36.13
2019-05-13T16:54:44.000Z,25.07
2019-05-13T16:57:14.651Z,17.63
2019-05-13T16:59:44.518Z,22.13
2019-05-13T17:02:14.434Z,30.60
2019-05-13T17:04:44.191Z,41.90
2019-05-13T17:07:14.048Z,11.97
2019-05-13T17:09:43.807Z,22.60
2019-05-13T17:12:15.874Z,26.20
2019-05-13T17:14:44.836Z,54.33
2019-05-13T17:17:14.716Z,36.77
2019-05-13T17:19:44.442Z,44.70
2019-05-13T17:22:14.204Z,17.40
2019-05-13T17:24:43.922Z,15.80
2019-05-13T17:27:13.639Z,11.67
2019-05-13T17:29:43.395Z,11.73
2019-05-13T17:32:13.147Z,16.17
2019-05-13T17:34:45.845Z,12.50
2019-05-13T17:37:14.303Z,9.90
2019-05-13T17:39:44.091Z,8.30
2019-05-13T17:42:15.604Z,8.47
2019-05-13T17:44:46.274Z,7.00
2019-05-13T17:47:16.272Z,7.17
2019-05-13T17:49:45.984Z,9.97
2019-05-13T17:52:15.688Z,13.70
2019-05-13T17:54:45.447Z,13.20
2019-05-13T17:57:15.154Z,17.97
2019-05-13T17:59:44.967Z,17.20
2019-05-13T18:02:14.675Z,17.67
2019-05-13T18:04:44.468Z,18.33
2019-05-13T18:07:14.175Z,13.77
2019-05-13T18:09:43.950Z,12.70
2019-05-13T18:12:13.658Z,13.77
2019-05-13T18:14:43.364Z,12.33
2019-05-13T18:17:13.087Z,14.90
2019-05-13T18:19:42.840Z,19.80
2019-05-13T18:22:12.690Z,23.47
2019-05-13T18:24:42.384Z,22.10
2019-05-13T18:27:15.099Z,19.83
2019-05-13T18:29:47.961Z,18.60
2019-05-13T18:32:17.655Z,19.73
2019-05-13T18:34:47.417Z,21.53
2019-05-13T18:37:17.646Z,25.07
2019-05-13T18:39:47.342Z,24.33
2019-05-13T18:42:17.135Z,29.53
2019-05-13T18:44:46.884Z,28.23
2019-05-13T18:47:16.581Z,22.03
2019-05-13T18:49:46.309Z,16.77
2019-05-13T18:52:16.028Z,16.43
2019-05-13T18:54:45.798Z,16.83
2019-05-13T18:57:15.533Z,16.83
2019-05-13T18:59:46.336Z,15.63
2019-05-13T19:02:16.055Z,16.20
2019-05-13T19:04:45.841Z,15.77
2019-05-13T19:07:15.620Z,18.57
2019-05-13T19:09:45.291Z,20.47
2019-05-13T19:12:15.035Z,19.40
2019-05-13T19:14:46.766Z,20.87
2019-05-13T19:17:16.453Z,23.63
2019-05-13T19:19:46.713Z,22.10
2019-05-13T19:22:16.575Z,21.37
2019-05-13T19:24:46.831Z,22.83
2019-05-13T19:27:16.578Z,22.53
2019-05-13T19:29:46.318Z,24.00
2019-05-13T19:32:16.034Z,24.27
2019-05-13T19:34:45.743Z,26.60
2019-05-13T19:37:15.509Z,26.03
2019-05-13T19:39:45.281Z,25.60
2019-05-13T19:42:14.994Z,28.47
2019-05-13T19:44:44.698Z,26.73
2019-05-13T19:47:14.452Z,28.87
2019-05-13T19:49:46.763Z,32.97
2019-05-13T19:52:16.809Z,37.07
2019-05-13T19:54:46.508Z,31.33
2019-05-13T19:57:16.262Z,32.73
2019-05-13T19:59:46.160Z,27.30
2019-05-13T20:02:15.879Z,29.27
2019-05-13T20:04:45.636Z,30.97
2019-05-13T20:07:15.351Z,29.43
2019-05-13T20:09:45.151Z,31.03
2019-05-13T20:12:15.867Z,21.77
2019-05-13T20:14:45.788Z,24.83
2019-05-13T20:17:15.459Z,25.30
2019-05-13T20:19:50.152Z,32.50
2019-05-13T20:22:16.548Z,42.87
2019-05-13T20:24:46.269Z,36.43
2019-05-13T20:27:16.104Z,27.90
2019-05-13T20:29:45.811Z,26.27
2019-05-13T20:32:15.901Z,25.47
2019-05-13T20:34:45.639Z,26.53
2019-05-13T20:37:15.339Z,26.57
2019-05-13T20:39:45.036Z,24.43
2019-05-13T20:42:14.773Z,23.93
2019-05-13T20:44:44.468Z,20.50
2019-05-13T20:47:15.592Z,20.80
2019-05-13T20:49:58.182Z,21.57
2019-05-13T20:52:16.614Z,17.30
2019-05-13T20:54:46.347Z,17.53
2019-05-13T20:57:16.026Z,12.60
2019-05-13T20:59:45.784Z,11.53
2019-05-13T21:02:15.519Z,11.90
2019-05-13T21:04:45.179Z,11.83
2019-05-13T21:07:14.848Z,12.97
2019-05-13T21:09:44.597Z,13.03
2019-05-13T21:12:14.375Z,14.07
2019-05-13T21:14:44.184Z,14.87
2019-05-13T21:17:13.984Z,14.43
2019-05-13T21:19:44.268Z,15.97
2019-05-13T21:22:13.994Z,15.87
2019-05-13T21:24:43.698Z,14.53
2019-05-13T21:27:13.568Z,15.00
2019-05-13T21:29:43.352Z,15.03
2019-05-13T21:32:13.048Z,14.17
2019-05-13T21:34:42.761Z,12.27
2019-05-13T21:37:12.511Z,12.00
2019-05-13T21:39:42.194Z,10.07
2019-05-13T21:42:11.923Z,7.43
2019-05-13T21:44:42.113Z,7.90
2019-05-13T21:47:12.034Z,6.63
2019-05-13T21:49:42.452Z,6.30
2019-05-13T21:52:12.477Z,5.57
2019-05-13T21:54:42.318Z,6.20
2019-05-13T21:57:12.072Z,6.20
2019-05-13T21:59:44.918Z,5.83
2019-05-13T22:02:13.216Z,5.40
2019-05-13T22:04:42.972Z,6.27
2019-05-13T22:07:12.682Z,6.03
2019-05-13T22:09:42.485Z,5.90
2019-05-13T22:12:12.176Z,6.50
2019-05-13T22:14:41.872Z,6.27
2019-05-13T22:17:12.348Z,5.67
2019-05-13T22:19:42.465Z,5.33
2019-05-13T22:22:12.140Z,4.93
2019-05-13T22:24:42.016Z,5.27
2019-05-13T22:27:13.202Z,5.47
2019-05-13T22:29:43.006Z,5.27
2019-05-13T22:32:12.730Z,5.63
2019-05-13T22:34:42.427Z,5.27
2019-05-13T22:37:12.745Z,5.03
2019-05-13T22:39:42.459Z,5.97
2019-05-13T22:42:12.560Z,5.90
2019-05-13T22:44:42.719Z,4.90
2019-05-13T22:47:13.426Z,5.13
2019-05-13T22:49:43.520Z,5.43
2019-05-13T22:52:13.278Z,5.47
2019-05-13T22:54:42.976Z,5.67
2019-05-13T22:57:12.664Z,5.87
2019-05-13T22:59:42.389Z,5.50
2019-05-13T23:02:12.286Z,5.73
2019-05-13T23:04:42.003Z,6.10
2019-05-13T23:07:11.994Z,5.70
2019-05-13T23:09:41.900Z,5.67
2019-05-13T23:12:12.415Z,5.80
2019-05-13T23:14:42.196Z,6.17
2019-05-13T23:17:12.543Z,6.53
2019-05-13T23:19:42.629Z,5.83
2019-05-13T23:22:12.316Z,6.17
2019-05-13T23:24:42.059Z,6.60
2019-05-13T23:27:11.790Z,6.30
2019-05-13T23:29:41.465Z,6.90
2019-05-13T23:32:12.012Z,6.73
2019-05-13T23:34:42.413Z,6.77
2019-05-13T23:37:12.606Z,7.03
2019-05-13T23:39:42.333Z,6.60
2019-05-13T23:42:12.425Z,6.40
2019-05-13T23:44:43.085Z,7.50
2019-05-13T23:47:12.780Z,6.90
2019-05-13T23:49:42.948Z,6.53
2019-05-13T23:52:12.679Z,7.17
2019-05-13T23:54:42.690Z,6.73
2019-05-13T23:57:12.740Z,7.13
2019-05-13T23:59:42.461Z,7.60
